sensor_id;sensor_type;location;lat;lon;timestamp;P1;durP1;ratioP1;P2;durP2;ratioP2
11228;SDS011;5671;47.936;8.716;2024-02-04T00:02:17;8.47;;;5.33;;
11228;SDS011;5671;47.936;8.716;2024-02-04T00:04:45;7.10;;;4.90;;
11228;SDS011;5671;47.936;8.716;2024-02-04T00:07:12;6.37;;;5.30;;
11228;SDS011;5671;47.936;8.716;2024-02-04T00:09:39;6.13;;;5.47;;
11228;SDS011;5671;47.936;8.716;2024-02-04T00:12:06;8.40;;;7.60;;
11228;SDS011;5671;47.936;8.716;2024-02-04T00:14:33;8.30;;;7.10;;
11228;SDS011;5671;47.936;8.716;2024-02-04T00:17:00;5.93;;;5.43;;
11228;SDS011;5671;47.936;8.716;2024-02-04T00:19:28;5.03;;;4.53;;
11228;SDS011;5671;47.936;8.716;2024-02-04T00:21:57;7.07;;;6.00;;
11228;SDS011;5671;47.936;8.716;2024-02-04T00:24:24;5.00;;;4.60;;
11228;SDS011;5671;47.936;8.716;2024-02-04T00:26:51;5.70;;;5.10;;
11228;SDS011;5671;47.936;8.716;2024-02-04T00:29:18;5.83;;;5.23;;
11228;SDS011;5671;47.936;8.716;2024-02-04T00:31:45;5.23;;;4.73;;
11228;SDS011;5671;47.936;8.716;2024-02-04T00:34:11;5.47;;;4.97;;
11228;SDS011;5671;47.936;8.716;2024-02-04T00:36:39;5.90;;;5.30;;
11228;SDS011;5671;47.936;8.716;2024-02-04T00:39:06;5.93;;;5.23;;
11228;SDS011;5671;47.936;8.716;2024-02-04T00:41:33;5.40;;;4.93;;
11228;SDS011;5671;47.936;8.716;2024-02-04T00:44:00;6.00;;;5.33;;
11228;SDS011;5671;47.936;8.716;2024-02-04T00:46:28;5.60;;;5.10;;
11228;SDS011;5671;47.936;8.716;2024-02-04T00:48:54;6.00;;;5.43;;
11228;SDS011;5671;47.936;8.716;2024-02-04T00:51:21;5.70;;;5.20;;
11228;SDS011;5671;47.936;8.716;2024-02-04T00:53:49;5.77;;;5.20;;
11228;SDS011;5671;47.936;8.716;2024-02-04T00:56:18;5.90;;;5.40;;
11228;SDS011;5671;47.936;8.716;2024-02-04T00:58:44;6.57;;;5.97;;
11228;SDS011;5671;47.936;8.716;2024-02-04T01:01:11;7.23;;;5.77;;
11228;SDS011;5671;47.936;8.716;2024-02-04T01:03:38;6.13;;;5.53;;
11228;SDS011;5671;47.936;8.716;2024-02-04T01:06:05;6.37;;;5.13;;
11228;SDS011;5671;47.936;8.716;2024-02-04T01:08:32;6.40;;;5.80;;
11228;SDS011;5671;47.936;8.716;2024-02-04T01:11:01;7.13;;;6.33;;
11228;SDS011;5671;47.936;8.716;2024-02-04T01:13:28;6.33;;;5.73;;
11228;SDS011;5671;47.936;8.716;2024-02-04T01:15:55;9.60;;;6.07;;
11228;SDS011;5671;47.936;8.716;2024-02-04T01:18:22;6.33;;;5.73;;
11228;SDS011;5671;47.936;8.716;2024-02-04T01:20:48;7.10;;;6.40;;
11228;SDS011;5671;47.936;8.716;2024-02-04T01:23:15;10.27;;;6.37;;
11228;SDS011;5671;47.936;8.716;2024-02-04T01:25:43;7.43;;;6.67;;
11228;SDS011;5671;47.936;8.716;2024-02-04T01:28:11;5.97;;;5.33;;
11228;SDS011;5671;47.936;8.716;2024-02-04T01:30:38;17.07;;;6.53;;
11228;SDS011;5671;47.936;8.716;2024-02-04T01:33:05;7.07;;;6.00;;
11228;SDS011;5671;47.936;8.716;2024-02-04T01:35:32;8.13;;;6.60;;
11228;SDS011;5671;47.936;8.716;2024-02-04T01:37:58;9.97;;;7.30;;
11228;SDS011;5671;47.936;8.716;2024-02-04T01:40:25;8.30;;;7.03;;
11228;SDS011;5671;47.936;8.716;2024-02-04T01:42:52;7.20;;;6.53;;
11228;SDS011;5671;47.936;8.716;2024-02-04T01:45:20;6.87;;;6.27;;
11228;SDS011;5671;47.936;8.716;2024-02-04T01:47:47;6.83;;;6.13;;
11228;SDS011;5671;47.936;8.716;2024-02-04T01:50:14;38.67;;;8.10;;
11228;SDS011;5671;47.936;8.716;2024-02-04T01:52:42;19.60;;;7.33;;
11228;SDS011;5671;47.936;8.716;2024-02-04T01:55:10;7.00;;;6.30;;
11228;SDS011;5671;47.936;8.716;2024-02-04T01:57:37;7.13;;;6.37;;
11228;SDS011;5671;47.936;8.716;2024-02-04T02:00:05;11.83;;;5.90;;
11228;SDS011;5671;47.936;8.716;2024-02-04T02:02:39;35.87;;;7.27;;
11228;SDS011;5671;47.936;8.716;2024-02-04T02:05:06;10.40;;;5.97;;
11228;SDS011;5671;47.936;8.716;2024-02-04T02:07:34;12.37;;;5.60;;
11228;SDS011;5671;47.936;8.716;2024-02-04T02:10:00;34.33;;;6.60;;
11228;SDS011;5671;47.936;8.716;2024-02-04T02:12:31;11.43;;;6.03;;
11228;SDS011;5671;47.936;8.716;2024-02-04T02:15:04;40.63;;;6.80;;
11228;SDS011;5671;47.936;8.716;2024-02-04T02:17:41;47.10;;;7.10;;
11228;SDS011;5671;47.936;8.716;2024-02-04T02:20:16;143.23;;;9.63;;
11228;SDS011;5671;47.936;8.716;2024-02-04T02:22:47;6.77;;;6.17;;
11228;SDS011;5671;47.936;8.716;2024-02-04T02:25:17;6.37;;;5.77;;
11228;SDS011;5671;47.936;8.716;2024-02-04T02:27:47;6.73;;;6.13;;
11228;SDS011;5671;47.936;8.716;2024-02-04T02:30:14;13.50;;;6.40;;
11228;SDS011;5671;47.936;8.716;2024-02-04T02:32:42;7.07;;;6.37;;
11228;SDS011;5671;47.936;8.716;2024-02-04T02:35:10;5.50;;;5.00;;
11228;SDS011;5671;47.936;8.716;2024-02-04T02:37:40;8.30;;;4.87;;
11228;SDS011;5671;47.936;8.716;2024-02-04T02:40:12;5.30;;;4.80;;
11228;SDS011;5671;47.936;8.716;2024-02-04T02:42:47;4.97;;;4.57;;
11228;SDS011;5671;47.936;8.716;2024-02-04T02:45:15;5.00;;;4.50;;
11228;SDS011;5671;47.936;8.716;2024-02-04T02:47:42;8.63;;;5.47;;
11228;SDS011;5671;47.936;8.716;2024-02-04T02:50:12;66.90;;;7.27;;
11228;SDS011;5671;47.936;8.716;2024-02-04T02:52:39;74.30;;;7.40;;
11228;SDS011;5671;47.936;8.716;2024-02-04T02:55:06;68.73;;;6.87;;
11228;SDS011;5671;47.936;8.716;2024-02-04T02:57:33;18.37;;;6.30;;
11228;SDS011;5671;47.936;8.716;2024-02-04T03:00:01;45.50;;;6.00;;
11228;SDS011;5671;47.936;8.716;2024-02-04T03:02:30;13.93;;;6.50;;
11228;SDS011;5671;47.936;8.716;2024-02-04T03:04:57;6.67;;;6.03;;
11228;SDS011;5671;47.936;8.716;2024-02-04T03:07:24;32.67;;;7.30;;
11228;SDS011;5671;47.936;8.716;2024-02-04T03:09:52;27.57;;;7.80;;
11228;SDS011;5671;47.936;8.716;2024-02-04T03:12:19;19.97;;;7.10;;
11228;SDS011;5671;47.936;8.716;2024-02-04T03:14:46;11.47;;;6.17;;
11228;SDS011;5671;47.936;8.716;2024-02-04T03:17:14;6.37;;;5.67;;
11228;SDS011;5671;47.936;8.716;2024-02-04T03:19:45;6.10;;;5.50;;
11228;SDS011;5671;47.936;8.716;2024-02-04T03:22:12;6.13;;;5.53;;
11228;SDS011;5671;47.936;8.716;2024-02-04T03:24:39;6.60;;;5.60;;
11228;SDS011;5671;47.936;8.716;2024-02-04T03:27:06;5.73;;;5.23;;
11228;SDS011;5671;47.936;8.716;2024-02-04T03:29:33;7.83;;;5.77;;
11228;SDS011;5671;47.936;8.716;2024-02-04T03:32:00;6.53;;;5.90;;
11228;SDS011;5671;47.936;8.716;2024-02-04T03:34:29;5.77;;;5.27;;
11228;SDS011;5671;47.936;8.716;2024-02-04T03:36:59;5.50;;;5.03;;
11228;SDS011;5671;47.936;8.716;2024-02-04T03:39:26;5.90;;;5.30;;
11228;SDS011;5671;47.936;8.716;2024-02-04T03:41:53;6.50;;;5.80;;
11228;SDS011;5671;47.936;8.716;2024-02-04T03:44:20;8.63;;;6.10;;
11228;SDS011;5671;47.936;8.716;2024-02-04T03:46:47;10.97;;;5.80;;
11228;SDS011;5671;47.936;8.716;2024-02-04T03:49:15;7.47;;;5.77;;
11228;SDS011;5671;47.936;8.716;2024-02-04T03:51:43;5.73;;;5.13;;
11228;SDS011;5671;47.936;8.716;2024-02-04T03:54:10;5.40;;;4.63;;
11228;SDS011;5671;47.936;8.716;2024-02-04T03:56:37;4.90;;;4.50;;
11228;SDS011;5671;47.936;8.716;2024-02-04T03:59:03;4.83;;;4.33;;
11228;SDS011;5671;47.936;8.716;2024-02-04T04:01:31;5.23;;;4.73;;
11228;SDS011;5671;47.936;8.716;2024-02-04T04:03:58;6.70;;;5.37;;
11228;SDS011;5671;47.936;8.716;2024-02-04T04:06:25;6.57;;;5.33;;
11228;SDS011;5671;47.936;8.716;2024-02-04T04:08:53;5.70;;;5.20;;
11228;SDS011;5671;47.936;8.716;2024-02-04T04:11:20;6.50;;;5.77;;
11228;SDS011;5671;47.936;8.716;2024-02-04T04:13:48;6.33;;;5.70;;
11228;SDS011;5671;47.936;8.716;2024-02-04T04:16:14;7.93;;;5.97;;
11228;SDS011;5671;47.936;8.716;2024-02-04T04:18:41;10.40;;;5.73;;
11228;SDS011;5671;47.936;8.716;2024-02-04T04:21:08;10.40;;;5.50;;
11228;SDS011;5671;47.936;8.716;2024-02-04T04:23:35;8.77;;;6.00;;
11228;SDS011;5671;47.936;8.716;2024-02-04T04:26:03;9.30;;;6.47;;
11228;SDS011;5671;47.936;8.716;2024-02-04T04:28:30;6.03;;;5.43;;
11228;SDS011;5671;47.936;8.716;2024-02-04T04:30:57;8.73;;;6.40;;
11228;SDS011;5671;47.936;8.716;2024-02-04T04:33:24;9.13;;;5.83;;
11228;SDS011;5671;47.936;8.716;2024-02-04T04:35:51;6.70;;;5.67;;
11228;SDS011;5671;47.936;8.716;2024-02-04T04:38:17;7.30;;;5.17;;
11228;SDS011;5671;47.936;8.716;2024-02-04T04:40:44;6.20;;;5.60;;
11228;SDS011;5671;47.936;8.716;2024-02-04T04:43:12;7.03;;;6.33;;
11228;SDS011;5671;47.936;8.716;2024-02-04T04:45:39;6.23;;;5.60;;
11228;SDS011;5671;47.936;8.716;2024-02-04T04:48:06;7.17;;;6.47;;
11228;SDS011;5671;47.936;8.716;2024-02-04T04:50:34;7.13;;;6.20;;
11228;SDS011;5671;47.936;8.716;2024-02-04T04:53:00;6.50;;;5.90;;
11228;SDS011;5671;47.936;8.716;2024-02-04T04:55:27;7.37;;;6.47;;
11228;SDS011;5671;47.936;8.716;2024-02-04T04:57:54;6.63;;;5.70;;
11228;SDS011;5671;47.936;8.716;2024-02-04T05:00:22;6.87;;;5.40;;
11228;SDS011;5671;47.936;8.716;2024-02-04T05:02:49;7.37;;;6.33;;
11228;SDS011;5671;47.936;8.716;2024-02-04T05:05:16;6.83;;;6.13;;
11228;SDS011;5671;47.936;8.716;2024-02-04T05:07:43;6.83;;;6.13;;
11228;SDS011;5671;47.936;8.716;2024-02-04T05:10:11;7.53;;;6.33;;
11228;SDS011;5671;47.936;8.716;2024-02-04T05:12:38;7.80;;;6.07;;
11228;SDS011;5671;47.936;8.716;2024-02-04T05:15:05;8.83;;;6.80;;
11228;SDS011;5671;47.936;8.716;2024-02-04T05:17:34;7.23;;;6.53;;
11228;SDS011;5671;47.936;8.716;2024-02-04T05:20:01;9.97;;;6.87;;
11228;SDS011;5671;47.936;8.716;2024-02-04T05:22:29;7.20;;;6.23;;
11228;SDS011;5671;47.936;8.716;2024-02-04T05:24:56;12.47;;;6.97;;
11228;SDS011;5671;47.936;8.716;2024-02-04T05:27:23;9.60;;;6.83;;
11228;SDS011;5671;47.936;8.716;2024-02-04T05:29:50;8.03;;;6.70;;
11228;SDS011;5671;47.936;8.716;2024-02-04T05:32:17;7.23;;;6.10;;
11228;SDS011;5671;47.936;8.716;2024-02-04T05:34:46;6.67;;;5.97;;
11228;SDS011;5671;47.936;8.716;2024-02-04T05:37:12;7.17;;;6.30;;
11228;SDS011;5671;47.936;8.716;2024-02-04T05:39:39;6.53;;;5.80;;
11228;SDS011;5671;47.936;8.716;2024-02-04T05:42:06;6.63;;;5.83;;
11228;SDS011;5671;47.936;8.716;2024-02-04T05:44:33;7.07;;;6.37;;
11228;SDS011;5671;47.936;8.716;2024-02-04T05:47:00;7.20;;;6.40;;
11228;SDS011;5671;47.936;8.716;2024-02-04T05:49:26;5.33;;;4.70;;
11228;SDS011;5671;47.936;8.716;2024-02-04T05:51:55;5.30;;;4.07;;
11228;SDS011;5671;47.936;8.716;2024-02-04T05:54:21;4.47;;;3.90;;
11228;SDS011;5671;47.936;8.716;2024-02-04T05:56:48;11.60;;;3.37;;
11228;SDS011;5671;47.936;8.716;2024-02-04T05:59:15;14.40;;;3.97;;
11228;SDS011;5671;47.936;8.716;2024-02-04T06:01:42;10.70;;;6.33;;
11228;SDS011;5671;47.936;8.716;2024-02-04T06:04:09;15.80;;;6.10;;
11228;SDS011;5671;47.936;8.716;2024-02-04T06:06:36;10.33;;;5.67;;
11228;SDS011;5671;47.936;8.716;2024-02-04T06:09:04;9.37;;;7.40;;
11228;SDS011;5671;47.936;8.716;2024-02-04T06:11:33;7.03;;;6.00;;
11228;SDS011;5671;47.936;8.716;2024-02-04T06:14:00;8.07;;;5.80;;
11228;SDS011;5671;47.936;8.716;2024-02-04T06:16:27;9.33;;;5.80;;
11228;SDS011;5671;47.936;8.716;2024-02-04T06:18:54;13.93;;;4.53;;
11228;SDS011;5671;47.936;8.716;2024-02-04T06:21:23;13.20;;;3.17;;
11228;SDS011;5671;47.936;8.716;2024-02-04T06:23:50;15.63;;;3.20;;
11228;SDS011;5671;47.936;8.716;2024-02-04T06:26:18;15.20;;;2.93;;
11228;SDS011;5671;47.936;8.716;2024-02-04T06:28:45;5.37;;;2.70;;
11228;SDS011;5671;47.936;8.716;2024-02-04T06:31:13;4.50;;;2.37;;
11228;SDS011;5671;47.936;8.716;2024-02-04T06:33:40;3.03;;;2.80;;
11228;SDS011;5671;47.936;8.716;2024-02-04T06:36:08;3.93;;;2.20;;
11228;SDS011;5671;47.936;8.716;2024-02-04T06:38:36;3.77;;;2.47;;
11228;SDS011;5671;47.936;8.716;2024-02-04T06:41:02;6.67;;;2.50;;
11228;SDS011;5671;47.936;8.716;2024-02-04T06:43:31;9.10;;;2.47;;
11228;SDS011;5671;47.936;8.716;2024-02-04T06:45:58;4.00;;;2.30;;
11228;SDS011;5671;47.936;8.716;2024-02-04T06:48:24;2.60;;;2.40;;
11228;SDS011;5671;47.936;8.716;2024-02-04T06:50:51;2.73;;;2.53;;
11228;SDS011;5671;47.936;8.716;2024-02-04T06:53:18;2.93;;;2.73;;
11228;SDS011;5671;47.936;8.716;2024-02-04T06:55:45;2.60;;;2.40;;
11228;SDS011;5671;47.936;8.716;2024-02-04T06:58:12;3.10;;;2.60;;
11228;SDS011;5671;47.936;8.716;2024-02-04T07:00:40;2.47;;;2.13;;
11228;SDS011;5671;47.936;8.716;2024-02-04T07:03:07;2.50;;;2.13;;
11228;SDS011;5671;47.936;8.716;2024-02-04T07:05:34;3.50;;;2.10;;
11228;SDS011;5671;47.936;8.716;2024-02-04T07:08:02;3.40;;;2.00;;
11228;SDS011;5671;47.936;8.716;2024-02-04T07:10:29;4.60;;;1.50;;
11228;SDS011;5671;47.936;8.716;2024-02-04T07:12:56;2.67;;;1.90;;
11228;SDS011;5671;47.936;8.716;2024-02-04T07:15:22;4.67;;;2.60;;
11228;SDS011;5671;47.936;8.716;2024-02-04T07:17:51;6.83;;;3.13;;
11228;SDS011;5671;47.936;8.716;2024-02-04T07:20:17;6.80;;;3.90;;
11228;SDS011;5671;47.936;8.716;2024-02-04T07:22:45;3.70;;;3.10;;
11228;SDS011;5671;47.936;8.716;2024-02-04T07:25:11;4.87;;;3.77;;
11228;SDS011;5671;47.936;8.716;2024-02-04T07:27:38;4.53;;;3.73;;
11228;SDS011;5671;47.936;8.716;2024-02-04T07:30:06;5.50;;;3.90;;
11228;SDS011;5671;47.936;8.716;2024-02-04T07:32:33;5.67;;;3.57;;
11228;SDS011;5671;47.936;8.716;2024-02-04T07:35:03;3.53;;;3.23;;
11228;SDS011;5671;47.936;8.716;2024-02-04T07:37:31;4.77;;;3.23;;
11228;SDS011;5671;47.936;8.716;2024-02-04T07:39:58;4.23;;;3.30;;
11228;SDS011;5671;47.936;8.716;2024-02-04T07:42:26;3.27;;;2.97;;
11228;SDS011;5671;47.936;8.716;2024-02-04T07:44:53;9.33;;;4.37;;
11228;SDS011;5671;47.936;8.716;2024-02-04T07:47:20;6.60;;;5.60;;
11228;SDS011;5671;47.936;8.716;2024-02-04T07:49:46;3.93;;;3.40;;
11228;SDS011;5671;47.936;8.716;2024-02-04T07:52:15;4.70;;;2.90;;
11228;SDS011;5671;47.936;8.716;2024-02-04T07:54:42;3.50;;;3.20;;
11228;SDS011;5671;47.936;8.716;2024-02-04T07:57:09;3.77;;;3.23;;
11228;SDS011;5671;47.936;8.716;2024-02-04T07:59:36;3.93;;;3.17;;
11228;SDS011;5671;47.936;8.716;2024-02-04T08:02:03;16.00;;;3.10;;
11228;SDS011;5671;47.936;8.716;2024-02-04T08:04:31;4.57;;;3.20;;
11228;SDS011;5671;47.936;8.716;2024-02-04T08:06:58;3.73;;;3.43;;
11228;SDS011;5671;47.936;8.716;2024-02-04T08:09:26;4.03;;;3.73;;
11228;SDS011;5671;47.936;8.716;2024-02-04T08:11:53;5.47;;;3.60;;
11228;SDS011;5671;47.936;8.716;2024-02-04T08:14:20;3.63;;;3.27;;
11228;SDS011;5671;47.936;8.716;2024-02-04T08:16:47;7.70;;;4.30;;
11228;SDS011;5671;47.936;8.716;2024-02-04T08:19:13;10.10;;;7.83;;
11228;SDS011;5671;47.936;8.716;2024-02-04T08:21:40;5.40;;;4.63;;
11228;SDS011;5671;47.936;8.716;2024-02-04T08:24:07;4.60;;;4.20;;
11228;SDS011;5671;47.936;8.716;2024-02-04T08:26:35;3.70;;;3.20;;
11228;SDS011;5671;47.936;8.716;2024-02-04T08:29:02;5.20;;;4.00;;
11228;SDS011;5671;47.936;8.716;2024-02-04T08:31:30;4.43;;;3.97;;
11228;SDS011;5671;47.936;8.716;2024-02-04T08:33:58;4.37;;;3.50;;
11228;SDS011;5671;47.936;8.716;2024-02-04T08:36:25;3.77;;;3.00;;
11228;SDS011;5671;47.936;8.716;2024-02-04T08:38:52;1.90;;;1.80;;
11228;SDS011;5671;47.936;8.716;2024-02-04T08:41:19;1.67;;;1.30;;
11228;SDS011;5671;47.936;8.716;2024-02-04T08:43:47;1.60;;;1.40;;
11228;SDS011;5671;47.936;8.716;2024-02-04T08:46:14;2.47;;;1.00;;
11228;SDS011;5671;47.936;8.716;2024-02-04T08:48:41;1.10;;;1.03;;
11228;SDS011;5671;47.936;8.716;2024-02-04T08:51:10;1.80;;;0.97;;
11228;SDS011;5671;47.936;8.716;2024-02-04T08:53:37;0.80;;;0.80;;
11228;SDS011;5671;47.936;8.716;2024-02-04T08:56:05;1.67;;;1.53;;
11228;SDS011;5671;47.936;8.716;2024-02-04T08:58:32;5.57;;;1.73;;
11228;SDS011;5671;47.936;8.716;2024-02-04T09:01:01;1.40;;;1.30;;
11228;SDS011;5671;47.936;8.716;2024-02-04T09:03:27;0.80;;;0.80;;
11228;SDS011;5671;47.936;8.716;2024-02-04T09:05:54;0.60;;;0.60;;
11228;SDS011;5671;47.936;8.716;2024-02-04T09:08:21;0.50;;;0.50;;
11228;SDS011;5671;47.936;8.716;2024-02-04T09:10:48;1.07;;;0.67;;
11228;SDS011;5671;47.936;8.716;2024-02-04T09:13:15;0.67;;;0.67;;
11228;SDS011;5671;47.936;8.716;2024-02-04T09:15:42;0.60;;;0.60;;
11228;SDS011;5671;47.936;8.716;2024-02-04T09:18:10;1.23;;;0.93;;
11228;SDS011;5671;47.936;8.716;2024-02-04T09:20:37;3.00;;;0.97;;
11228;SDS011;5671;47.936;8.716;2024-02-04T09:23:04;0.90;;;0.70;;
11228;SDS011;5671;47.936;8.716;2024-02-04T09:25:31;0.40;;;0.40;;
11228;SDS011;5671;47.936;8.716;2024-02-04T09:27:58;0.77;;;0.50;;
11228;SDS011;5671;47.936;8.716;2024-02-04T09:30:25;3.03;;;0.90;;
11228;SDS011;5671;47.936;8.716;2024-02-04T09:32:52;1.07;;;0.97;;
11228;SDS011;5671;47.936;8.716;2024-02-04T09:38:57;1.57;;;1.30;;
11228;SDS011;5671;47.936;8.716;2024-02-04T09:41:45;0.90;;;0.80;;
11228;SDS011;5671;47.936;8.716;2024-02-04T09:44:20;1.17;;;0.70;;
11228;SDS011;5671;47.936;8.716;2024-02-04T09:46:49;0.87;;;0.60;;
11228;SDS011;5671;47.936;8.716;2024-02-04T09:52:09;0.97;;;0.70;;
11228;SDS011;5671;47.936;8.716;2024-02-04T09:54:41;0.83;;;0.70;;
11228;SDS011;5671;47.936;8.716;2024-02-04T09:57:10;1.03;;;0.40;;
11228;SDS011;5671;47.936;8.716;2024-02-04T09:59:38;1.20;;;0.70;;
11228;SDS011;5671;47.936;8.716;2024-02-04T10:02:06;0.90;;;0.50;;
11228;SDS011;5671;47.936;8.716;2024-02-04T10:04:40;1.90;;;1.67;;
11228;SDS011;5671;47.936;8.716;2024-02-04T10:07:06;1.00;;;1.00;;
11228;SDS011;5671;47.936;8.716;2024-02-04T10:09:35;2.20;;;1.70;;
11228;SDS011;5671;47.936;8.716;2024-02-04T10:12:05;3.87;;;0.87;;
11228;SDS011;5671;47.936;8.716;2024-02-04T10:14:42;0.97;;;0.80;;
11228;SDS011;5671;47.936;8.716;2024-02-04T10:17:18;1.40;;;0.73;;
11228;SDS011;5671;47.936;8.716;2024-02-04T10:19:46;1.20;;;0.67;;
11228;SDS011;5671;47.936;8.716;2024-02-04T10:22:30;3.20;;;0.67;;
11228;SDS011;5671;47.936;8.716;2024-02-04T10:25:05;1.20;;;0.80;;
11228;SDS011;5671;47.936;8.716;2024-02-04T10:34:11;1.97;;;1.67;;
11228;SDS011;5671;47.936;8.716;2024-02-04T10:36:38;0.90;;;0.90;;
11228;SDS011;5671;47.936;8.716;2024-02-04T10:39:05;1.03;;;0.70;;
11228;SDS011;5671;47.936;8.716;2024-02-04T10:41:34;2.20;;;1.30;;
11228;SDS011;5671;47.936;8.716;2024-02-04T10:44:12;0.97;;;0.77;;
11228;SDS011;5671;47.936;8.716;2024-02-04T10:50:03;0.83;;;0.63;;
11228;SDS011;5671;47.936;8.716;2024-02-04T10:52:32;0.40;;;0.40;;
11228;SDS011;5671;47.936;8.716;2024-02-04T10:55:21;1.23;;;0.80;;
11228;SDS011;5671;47.936;8.716;2024-02-04T10:57:56;1.83;;;0.90;;
11228;SDS011;5671;47.936;8.716;2024-02-04T11:10:11;1.13;;;0.80;;
11228;SDS011;5671;47.936;8.716;2024-02-04T11:16:15;0.60;;;0.60;;
11228;SDS011;5671;47.936;8.716;2024-02-04T11:18:58;0.83;;;0.80;;
11228;SDS011;5671;47.936;8.716;2024-02-04T11:21:54;0.77;;;0.63;;
11228;SDS011;5671;47.936;8.716;2024-02-04T11:24:46;0.70;;;0.70;;
11228;SDS011;5671;47.936;8.716;2024-02-04T11:27:41;0.97;;;0.60;;
11228;SDS011;5671;47.936;8.716;2024-02-04T11:30:18;1.20;;;0.70;;
11228;SDS011;5671;47.936;8.716;2024-02-04T11:33:26;0.97;;;0.60;;
11228;SDS011;5671;47.936;8.716;2024-02-04T11:39:26;1.87;;;0.87;;
11228;SDS011;5671;47.936;8.716;2024-02-04T11:42:23;0.83;;;0.60;;
11228;SDS011;5671;47.936;8.716;2024-02-04T11:45:05;0.83;;;0.80;;
11228;SDS011;5671;47.936;8.716;2024-02-04T11:47:33;1.27;;;0.77;;
11228;SDS011;5671;47.936;8.716;2024-02-04T11:50:00;1.40;;;0.77;;
11228;SDS011;5671;47.936;8.716;2024-02-04T11:52:36;0.93;;;0.83;;
11228;SDS011;5671;47.936;8.716;2024-02-04T11:55:12;1.40;;;1.23;;
11228;SDS011;5671;47.936;8.716;2024-02-04T11:57:40;0.93;;;0.60;;
11228;SDS011;5671;47.936;8.716;2024-02-04T12:00:09;1.60;;;1.10;;
11228;SDS011;5671;47.936;8.716;2024-02-04T12:02:37;0.67;;;0.67;;
11228;SDS011;5671;47.936;8.716;2024-02-04T12:05:07;1.60;;;0.70;;
11228;SDS011;5671;47.936;8.716;2024-02-04T12:07:49;0.73;;;0.73;;
11228;SDS011;5671;47.936;8.716;2024-02-04T12:13:30;3.17;;;2.90;;
11228;SDS011;5671;47.936;8.716;2024-02-04T12:16:04;1.70;;;1.27;;
11228;SDS011;5671;47.936;8.716;2024-02-04T12:18:33;0.67;;;0.67;;
11228;SDS011;5671;47.936;8.716;2024-02-04T12:21:02;1.40;;;0.87;;
11228;SDS011;5671;47.936;8.716;2024-02-04T12:23:55;1.80;;;0.77;;
11228;SDS011;5671;47.936;8.716;2024-02-04T12:26:50;0.70;;;0.70;;
11228;SDS011;5671;47.936;8.716;2024-02-04T12:29:19;0.50;;;0.50;;
11228;SDS011;5671;47.936;8.716;2024-02-04T12:31:47;0.47;;;0.47;;
11228;SDS011;5671;47.936;8.716;2024-02-04T12:34:14;0.50;;;0.50;;
11228;SDS011;5671;47.936;8.716;2024-02-04T12:36:41;1.03;;;0.73;;
11228;SDS011;5671;47.936;8.716;2024-02-04T12:39:09;0.50;;;0.50;;
11228;SDS011;5671;47.936;8.716;2024-02-04T12:41:37;0.80;;;0.80;;
11228;SDS011;5671;47.936;8.716;2024-02-04T12:44:04;0.87;;;0.87;;
11228;SDS011;5671;47.936;8.716;2024-02-04T12:46:31;0.73;;;0.73;;
11228;SDS011;5671;47.936;8.716;2024-02-04T12:48:59;1.83;;;0.53;;
11228;SDS011;5671;47.936;8.716;2024-02-04T12:51:27;0.73;;;0.20;;
11228;SDS011;5671;47.936;8.716;2024-02-04T12:54:04;1.17;;;0.50;;
11228;SDS011;5671;47.936;8.716;2024-02-04T12:56:41;0.50;;;0.37;;
11228;SDS011;5671;47.936;8.716;2024-02-04T12:59:10;1.13;;;0.60;;
11228;SDS011;5671;47.936;8.716;2024-02-04T13:01:38;0.50;;;0.50;;
11228;SDS011;5671;47.936;8.716;2024-02-04T13:04:06;1.23;;;0.30;;
11228;SDS011;5671;47.936;8.716;2024-02-04T13:06:37;0.27;;;0.27;;
11228;SDS011;5671;47.936;8.716;2024-02-04T13:09:05;0.40;;;0.40;;
11228;SDS011;5671;47.936;8.716;2024-02-04T13:11:34;0.20;;;0.20;;
11228;SDS011;5671;47.936;8.716;2024-02-04T13:14:01;0.17;;;0.17;;
11228;SDS011;5671;47.936;8.716;2024-02-04T13:16:28;0.40;;;0.40;;
11228;SDS011;5671;47.936;8.716;2024-02-04T13:18:55;2.23;;;0.30;;
11228;SDS011;5671;47.936;8.716;2024-02-04T13:21:24;0.30;;;0.30;;
11228;SDS011;5671;47.936;8.716;2024-02-04T13:23:51;0.63;;;0.30;;
11228;SDS011;5671;47.936;8.716;2024-02-04T13:26:17;0.83;;;0.40;;
11228;SDS011;5671;47.936;8.716;2024-02-04T13:28:46;0.27;;;0.20;;
11228;SDS011;5671;47.936;8.716;2024-02-04T13:31:18;0.60;;;0.33;;
11228;SDS011;5671;47.936;8.716;2024-02-04T13:33:45;0.20;;;0.20;;
11228;SDS011;5671;47.936;8.716;2024-02-04T13:36:11;0.10;;;0.10;;
11228;SDS011;5671;47.936;8.716;2024-02-04T13:38:40;0.27;;;0.20;;
11228;SDS011;5671;47.936;8.716;2024-02-04T13:41:07;0.80;;;0.40;;
11228;SDS011;5671;47.936;8.716;2024-02-04T13:43:33;0.20;;;0.20;;
11228;SDS011;5671;47.936;8.716;2024-02-04T13:46:00;0.47;;;0.30;;
11228;SDS011;5671;47.936;8.716;2024-02-04T13:48:27;1.60;;;0.20;;
11228;SDS011;5671;47.936;8.716;2024-02-04T13:50:54;0.40;;;0.30;;
11228;SDS011;5671;47.936;8.716;2024-02-04T13:53:21;0.50;;;0.30;;
11228;SDS011;5671;47.936;8.716;2024-02-04T13:55:50;0.43;;;0.43;;
11228;SDS011;5671;47.936;8.716;2024-02-04T13:58:17;0.30;;;0.30;;
11228;SDS011;5671;47.936;8.716;2024-02-04T14:00:44;0.47;;;0.37;;
11228;SDS011;5671;47.936;8.716;2024-02-04T14:03:11;0.30;;;0.30;;
11228;SDS011;5671;47.936;8.716;2024-02-04T14:05:38;0.60;;;0.27;;
11228;SDS011;5671;47.936;8.716;2024-02-04T14:08:06;2.00;;;0.57;;
11228;SDS011;5671;47.936;8.716;2024-02-04T14:10:33;0.87;;;0.40;;
11228;SDS011;5671;47.936;8.716;2024-02-04T14:13:01;0.33;;;0.33;;
11228;SDS011;5671;47.936;8.716;2024-02-04T14:15:28;0.23;;;0.20;;
11228;SDS011;5671;47.936;8.716;2024-02-04T14:17:56;0.40;;;0.37;;
11228;SDS011;5671;47.936;8.716;2024-02-04T14:20:23;1.60;;;0.30;;
11228;SDS011;5671;47.936;8.716;2024-02-04T14:22:51;0.50;;;0.20;;
11228;SDS011;5671;47.936;8.716;2024-02-04T14:25:18;0.60;;;0.20;;
11228;SDS011;5671;47.936;8.716;2024-02-04T14:27:45;0.80;;;0.50;;
11228;SDS011;5671;47.936;8.716;2024-02-04T14:30:17;0.60;;;0.40;;
11228;SDS011;5671;47.936;8.716;2024-02-04T14:32:44;0.70;;;0.70;;
11228;SDS011;5671;47.936;8.716;2024-02-04T14:35:11;2.37;;;1.60;;
11228;SDS011;5671;47.936;8.716;2024-02-04T14:37:38;3.60;;;2.83;;
11228;SDS011;5671;47.936;8.716;2024-02-04T14:40:05;3.57;;;3.27;;
11228;SDS011;5671;47.936;8.716;2024-02-04T14:42:33;3.23;;;2.93;;
11228;SDS011;5671;47.936;8.716;2024-02-04T14:45:00;1.63;;;1.53;;
11228;SDS011;5671;47.936;8.716;2024-02-04T14:47:28;1.50;;;1.30;;
11228;SDS011;5671;47.936;8.716;2024-02-04T14:49:55;0.97;;;0.97;;
11228;SDS011;5671;47.936;8.716;2024-02-04T14:52:22;1.13;;;0.77;;
11228;SDS011;5671;47.936;8.716;2024-02-04T14:54:49;2.10;;;1.90;;
11228;SDS011;5671;47.936;8.716;2024-02-04T14:57:16;1.90;;;1.70;;
11228;SDS011;5671;47.936;8.716;2024-02-04T14:59:42;1.90;;;1.50;;
11228;SDS011;5671;47.936;8.716;2024-02-04T15:02:09;2.03;;;1.30;;
11228;SDS011;5671;47.936;8.716;2024-02-04T15:04:38;2.90;;;1.33;;
11228;SDS011;5671;47.936;8.716;2024-02-04T15:07:05;3.80;;;2.93;;
11228;SDS011;5671;47.936;8.716;2024-02-04T15:09:33;4.17;;;2.43;;
11228;SDS011;5671;47.936;8.716;2024-02-04T15:12:01;4.60;;;2.20;;
11228;SDS011;5671;47.936;8.716;2024-02-04T15:14:28;2.30;;;1.50;;
11228;SDS011;5671;47.936;8.716;2024-02-04T15:16:56;1.93;;;1.73;;
11228;SDS011;5671;47.936;8.716;2024-02-04T15:19:24;1.53;;;1.43;;
11228;SDS011;5671;47.936;8.716;2024-02-04T15:21:53;3.87;;;1.70;;
11228;SDS011;5671;47.936;8.716;2024-02-04T15:24:21;1.70;;;1.60;;
11228;SDS011;5671;47.936;8.716;2024-02-04T15:26:48;2.83;;;1.67;;
11228;SDS011;5671;47.936;8.716;2024-02-04T15:29:18;1.50;;;1.40;;
11228;SDS011;5671;47.936;8.716;2024-02-04T15:31:47;4.00;;;1.60;;
11228;SDS011;5671;47.936;8.716;2024-02-04T15:34:15;1.83;;;1.67;;
11228;SDS011;5671;47.936;8.716;2024-02-04T15:36:42;2.00;;;1.57;;
11228;SDS011;5671;47.936;8.716;2024-02-04T15:39:11;1.97;;;1.83;;
11228;SDS011;5671;47.936;8.716;2024-02-04T15:41:38;2.30;;;1.93;;
11228;SDS011;5671;47.936;8.716;2024-02-04T15:44:05;2.63;;;1.93;;
11228;SDS011;5671;47.936;8.716;2024-02-04T15:46:32;4.03;;;1.67;;